Cape Elizabeth, Maine
Current Conditions -  °F | °C
As of 11:51 PM on Friday 19 Dec 2014 (Local Time) from KPWM Reporting Station
Clear Clear  
Wind Chill: 22°   Ceiling: Unl
Heat Index: 27°   Visibility: 10mi
Dew Point: 19°   Wind: 5mph
Humidity: 72%   Direction: 350°N
Pressure: 30.15"   Gusts: NA
Location:  43.56°N, 70.2°W
Report Text: KPWM 200451Z 35004KT 10SM CLR M03/M07 A3015 RMK AO2 SLP211 T10281072 400391033
Loading
Personal Weather Stations






























Interactive Weather Map New forecast layout! Learn more

10-Day Weather Forecast

Advertisements
Track Severe Weather on mobile